Latest Weather Observations for Kowen Forest

IDN60901

Issued at 6:31 pm EDT Tuesday 10 December 2019 (issued every 10 minutes, with the page automatically refreshed every 10 minutes)

About weather observations | Map of Canberra area stations | Latest observations for Canberra area | Other Formats
Station Details ID: 250071 Name: KOWEN FOREST (PCS) Lat: -35.31 Lon: 149.32 Height: 720.0 m

Portable automatic weather stations (PAWS) are operated by other organisations, such as Fire and Emergency Services, and are included here by agreement. Portable stations may be deployed to a location for a short period and their location may be subject to change without notice. Wind observations from these stations are provided from heights of either three (3) or ten (10) metres above ground level (AGL).

Data from the previous 72 hours. | See also: Recent months for locations in Aust Capital Territory
Date/Time
EDT
Temp
°C
App
Temp
°C
Dew
Point
°C
Rel
Hum
%
Delta-T
°C
Wind Press
QNH
hPa
Press
MSL
hPa
Rain since
9am
mm
Dir  Spd
km/h
Gust
km/h
Spd
kts
Gust
kts
10/06:20pm 28.5 24.3 9.7 31 10.8 ENE 22 30 12 16 - - 0.0
10/06:10pm 33.9 29.7 8.4 20 14.8 WNW 20 33 11 18 - - 0.0
10/06:00pm 33.7 26.3 -0.4 11 17.1 WNW 28 33 15 18 - - 0.0
10/05:50pm 33.7 27.5 -0.5 11 17.2 W 22 28 12 15 - - 0.0
10/05:40pm 33.3 26.6 -1.3 11 17.1 W 24 33 13 18 - - 0.0
10/05:30pm 33.4 26.7 -1.2 11 17.1 W 24 30 13 16 - - 0.0
10/05:20pm 33.9 26.8 -1.5 10 17.5 WNW 26 28 14 15 - - 0.0
10/05:10pm 34.4 27.5 -2.5 9 18.0 W 24 28 13 15 - - 0.0
10/05:00pm 34.4 26.8 -2.0 9 17.9 W 28 37 15 20 - - 0.0
10/04:50pm 35.2 26.7 -3.3 8 18.7 W 32 39 17 21 - - 0.0
10/04:40pm 35.2 27.0 -3.8 8 18.7 W 30 39 16 21 - - 0.0
10/04:30pm 35.6 27.4 -4.3 7 19.1 W 30 35 16 19 - - 0.0
10/04:20pm 34.3 27.5 -5.2 8 18.4 W 22 26 12 14 - - 0.0
10/04:10pm 34.7 26.4 -5.1 7 18.7 WNW 30 39 16 21 - - 0.0
10/04:00pm 35.1 27.6 -5.0 7 18.9 WNW 26 33 14 18 - - 0.0
10/03:50pm 35.2 26.2 -5.9 7 19.1 WNW 33 39 18 21 - - 0.0
10/03:40pm 35.2 27.1 -6.6 6 19.2 WNW 28 39 15 21 - - 0.0
10/03:30pm 35.2 25.4 -6.3 7 19.2 W 37 41 20 22 - - 0.0
10/03:20pm 35.8 28.1 -6.8 6 19.6 WNW 26 41 14 22 - - 0.0
10/03:10pm 35.3 26.2 -7.4 6 19.4 WNW 33 46 18 25 - - 0.0
10/03:00pm 34.9 25.9 -7.9 6 19.2 W 32 44 17 24 - - 0.0
10/02:50pm 35.2 26.6 -8.0 6 19.4 W 30 35 16 19 - - 0.0
10/02:40pm 35.4 26.4 -8.4 6 19.6 W 32 41 17 22 - - 0.0
10/02:30pm 35.5 26.2 -9.3 5 19.8 W 33 39 18 21 - - 0.0
10/02:20pm 35.7 27.4 -9.1 5 19.9 WNW 28 41 15 22 - - 0.0
10/02:10pm 35.5 25.4 -9.9 5 19.8 WNW 37 44 20 24 - - 0.0
10/02:00pm 35.7 26.6 -10.2 5 20.0 W 32 41 17 22 - - 0.0
10/01:50pm 35.5 26.3 -10.3 5 19.9 W 32 39 17 21 - - 0.0
10/01:40pm 35.3 26.9 -9.8 5 19.7 W 28 33 15 18 - - 0.0
10/01:30pm 35.2 26.2 -7.9 6 19.4 WNW 32 41 17 22 - - 0.0
10/01:20pm 35.0 27.3 -6.6 6 19.1 WNW 26 33 14 18 - - 0.0
10/01:10pm 34.5 25.6 -6.9 7 18.8 WNW 32 43 17 23 - - 0.0
10/01:00pm 34.4 25.9 -6.6 7 18.7 WNW 30 39 16 21 - - 0.0
10/12:50pm 35.2 27.6 -5.9 7 19.1 W 26 35 14 19 - - 0.0
10/12:40pm 35.0 26.9 -7.0 6 19.1 W 28 33 15 18 - - 0.0
10/12:30pm 34.5 27.0 -4.4 8 18.4 NW 26 33 14 18 - - 0.0
10/12:20pm 34.4 26.0 -6.2 7 18.7 WNW 30 33 16 18 - - 0.0
10/12:10pm 33.8 26.3 -4.9 8 18.1 NW 26 33 14 18 - - 0.0
10/12:00pm 33.8 25.5 -4.6 8 18.0 WNW 30 35 16 19 - - 0.0
10/11:50am 33.7 25.5 -3.8 9 17.8 WNW 30 33 16 18 - - 0.0
10/11:40am 33.4 25.9 -4.3 8 17.7 WNW 26 33 14 18 - - 0.0
10/11:30am 33.3 25.5 -3.9 9 17.6 WNW 28 35 15 19 - - 0.0
10/11:20am 33.1 25.3 -3.6 9 17.4 NW 28 35 15 19 - - 0.0
10/11:10am 32.9 24.9 -2.4 10 17.1 WNW 30 33 16 18 - - 0.0
10/11:00am 32.4 24.5 -1.5 11 16.6 W 30 37 16 20 - - 0.0
10/10:50am 32.8 26.2 -0.3 12 16.6 WNW 24 33 13 18 - - 0.0
10/10:40am 31.6 24.6 -0.4 13 15.9 WNW 26 33 14 18 - - 0.0
10/10:30am 31.4 25.2 -0.1 13 15.7 NW 22 30 12 16 - - 0.0
10/10:20am 31.1 25.4 0.6 14 15.3 NW 20 26 11 14 - - 0.0
10/10:10am 30.6 25.2 1.0 15 14.9 WNW 19 24 10 13 - - 0.0
10/10:00am 30.0 24.0 1.2 15 14.5 WNW 22 26 12 14 - - 0.0
10/09:50am 29.5 23.2 1.6 16 14.1 WNW 24 26 13 14 - - 0.0
10/09:40am 29.7 23.9 2.1 17 14.1 WNW 22 26 12 14 - - 0.0
10/09:30am 29.6 24.3 1.9 17 14.1 W 19 24 10 13 - - 0.0
10/09:20am 28.9 25.6 2.2 18 13.6 SSW 9 19 5 10 - - 0.0
10/09:10am 27.8 25.3 3.9 21 12.5 SSW 6 7 3 4 - - 0.0
10/09:00am 26.7 24.8 4.8 24 11.5 SSW 4 6 2 3 - - 0.0
10/08:50am 25.7 24.1 4.5 25 11.0 SSE 2 4 1 2 - - 0.0
10/08:40am 24.1 22.6 5.2 29 9.9 E 2 2 1 1 - - 0.0
10/08:30am 22.6 21.1 5.2 32 9.0 N 2 4 1 2 - - 0.0
10/08:20am 21.4 19.9 5.2 34 8.3 NNW 2 2 1 1 - - 0.0
10/08:10am 20.3 18.8 5.2 37 7.7 N 2 4 1 2 - - 0.0
10/08:00am 19.6 18.1 5.1 38 7.3 N 2 4 1 2 - - 0.0
10/07:50am 18.8 17.4 5.3 41 6.8 S 2 2 1 1 - - 0.0
10/07:40am 17.9 16.0 5.0 42 6.4 SSW 4 4 2 2 - - 0.0
10/07:30am 17.3 15.7 4.7 43 6.2 SW 2 2 1 1 - - 0.0
10/07:20am 16.4 14.8 4.7 46 5.7 NNW 2 2 1 1 - - 0.0
10/07:10am 15.0 13.4 4.7 50 5.0 NNE 2 2 1 1 - - 0.0
10/07:00am 13.8 12.3 5.1 55 4.2 NNE 2 2 1 1 - - 0.0
10/06:50am 13.2 11.6 4.6 56 4.1 ESE 2 4 1 2 - - 0.0
10/06:40am 11.6 9.1 4.0 59 3.5 NE 6 6 3 3 - - 0.0
10/06:30am 10.5 8.0 3.7 63 3.1 NE 6 6 3 3 - - 0.0
10/06:20am 9.6 7.4 3.6 66 2.7 NE 4 6 2 3 - - 0.0
10/06:10am 9.4 7.2 3.5 66 2.7 NE 4 4 2 2 - - 0.0
10/06:00am 9.4 7.6 3.2 65 2.8 ESE 2 4 1 2 - - 0.0
10/05:50am 9.3 7.5 3.6 67 2.6 S 2 4 1 2 - - 0.0
10/05:40am 9.7 7.4 3.0 63 3.0 NE 4 6 2 3 - - 0.0
10/05:30am 9.6 7.0 3.2 64 2.9 NE 6 6 3 3 - - 0.0
10/05:20am 9.6 7.4 3.3 65 2.8 NE 4 4 2 2 - - 0.0
10/05:10am 9.6 7.4 3.3 65 2.8 NE 4 6 2 3 - - 0.0
10/05:00am 9.5 7.3 3.4 65 2.8 NE 4 4 2 2 - - 0.0
10/04:50am 9.7 7.5 3.3 64 2.9 NNE 4 4 2 2 - - 0.0
10/04:40am 9.8 8.0 3.2 63 3.0 NNE 2 4 1 2 - - 0.0
10/04:30am 10.2 8.4 3.7 64 3.0 S 2 2 1 1 - - 0.0
10/04:20am 10.3 8.5 3.4 62 3.1 S 2 2 1 1 - - 0.0
10/04:10am 10.2 8.0 3.4 62 3.1 NE 4 6 2 3 - - 0.0
10/04:00am 10.7 8.1 3.4 60 3.3 NE 6 7 3 4 - - 0.0
10/03:50am 10.9 9.1 3.4 60 3.4 NE 2 4 1 2 - - 0.0
10/03:40am 11.0 8.7 2.8 57 3.7 NE 4 4 2 2 - - 0.0
10/03:30am 10.6 8.4 3.5 61 3.2 NNE 4 4 2 2 - - 0.0
10/03:20am 11.5 9.3 3.6 58 3.7 NE 4 4 2 2 - - 0.0
10/03:10am 11.5 9.3 3.5 58 3.7 NE 4 4 2 2 - - 0.0
10/03:00am 11.6 9.4 3.4 57 3.8 NE 4 4 2 2 - - 0.0
10/02:50am 11.7 9.9 3.3 56 3.9 NNE 2 4 1 2 - - 0.0
10/02:40am 11.7 10.3 3.7 58 3.7 CALM 0 0 0 0 - - 0.0
10/02:30am 11.9 10.2 4.0 58 3.7 NW 2 2 1 1 - - 0.0
10/02:20am 13.4 11.2 3.2 50 4.7 ENE 4 4 2 2 - - 0.0
10/02:10am 12.3 10.2 3.7 55 4.0 NNE 4 4 2 2 - - 0.0
10/02:00am 12.9 11.2 4.0 54 4.2 WSW 2 4 1 2 - - 0.0
10/01:50am 13.8 11.7 3.8 51 4.7 SE 4 4 2 2 - - 0.0
10/01:40am 13.2 10.7 3.7 52 4.5 NE 6 7 3 4 - - 0.0
10/01:30am 12.8 10.3 3.8 54 4.2 NE 6 6 3 3 - - 0.0
10/01:20am 13.1 10.9 3.4 51 4.5 NE 4 4 2 2 - - 0.0
10/01:10am 13.7 11.5 3.4 50 4.8 ENE 4 4 2 2 - - 0.0
10/01:00am 13.6 11.5 3.7 51 4.7 ENE 4 4 2 2 - - 0.0
10/12:50am 13.8 11.7 3.8 51 4.7 ENE 4 6 2 3 - - 0.0
10/12:40am 13.8 11.3 4.0 51 4.7 NE 6 6 3 3 - - 0.0
10/12:30am 14.4 12.3 3.8 49 5.0 NE 4 6 2 3 - - 0.0
10/12:20am 15.0 12.6 4.1 48 5.2 NE 6 6 3 3 - - 0.0
10/12:10am 15.2 12.7 3.6 46 5.5 NE 6 6 3 3 - - 0.0
10/12:00am 14.8 12.7 3.8 47 5.2 NNE 4 6 2 3 - - 0.0
 
Date/Time
EDT
Temp
°C
App
Temp
°C
Dew
Point
°C
Rel
Hum
%
Delta-T
°C
Wind Press
QNH
hPa
Press
MSL
hPa
Rain since
9am
mm
Dir  Spd
km/h
Gust
km/h
Spd
kts
Gust
kts
09/11:50pm 15.1 13.4 4.0 47 5.3 NE 2 4 1 2 - - 0.0
09/11:40pm 14.9 13.2 4.0 48 5.2 NE 2 4 1 2 - - 0.0
09/11:30pm 15.4 13.4 4.3 47 5.4 NE 4 6 2 3 - - 0.0
09/11:20pm 15.9 13.4 3.7 44 5.8 NE 6 7 3 4 - - 0.0
09/11:10pm 16.5 14.0 3.8 42 6.1 NE 6 7 3 4 - - 0.0
09/11:00pm 16.6 14.1 3.7 42 6.2 NE 6 7 3 4 - - 0.0
09/10:50pm 17.2 14.5 3.8 41 6.5 NE 7 9 4 5 - - 0.0
09/10:40pm 17.6 14.8 3.4 38 6.9 NE 7 9 4 5 - - 0.0
09/10:30pm 17.2 14.0 3.3 39 6.7 NE 9 9 5 5 - - 0.0
09/10:20pm 17.5 14.5 3.9 40 6.6 NE 9 9 5 5 - - 0.0
09/10:10pm 18.8 15.7 3.6 36 7.4 NE 9 9 5 5 - - 0.0
09/10:00pm 19.5 16.3 3.2 34 7.9 NE 9 9 5 5 - - 0.0
09/09:50pm 19.2 16.0 3.3 35 7.7 NE 9 9 5 5 - - 0.0
09/09:40pm 19.7 16.5 3.3 33 8.0 NE 9 9 5 5 - - 0.0
09/09:30pm 20.5 17.4 3.4 32 8.4 ENE 9 9 5 5 - - 0.0
09/09:20pm 21.3 18.1 3.2 30 8.9 NE 9 9 5 5 - - 0.0
09/09:10pm 21.5 18.3 2.9 29 9.1 NE 9 9 5 5 - - 0.0
09/09:00pm 21.3 18.5 3.1 30 9.0 NE 7 9 4 5 - - 0.0
09/08:50pm 22.5 20.0 3.7 29 9.4 NE 6 7 3 4 - - 0.0
09/08:40pm 24.3 21.7 3.2 25 10.6 NE 6 7 3 4 - - 0.0
09/08:30pm 25.3 23.5 3.2 24 11.2 N 2 4 1 2 - - 0.0
09/08:20pm 26.4 24.2 3.2 22 11.8 W 4 6 2 3 - - 0.0
09/08:10pm 27.1 24.3 2.9 21 12.3 W 7 9 4 5 - - 0.0
09/08:00pm 27.8 24.5 2.7 20 12.8 W 9 11 5 6 - - 0.0
09/07:50pm 28.4 24.8 2.7 19 13.2 WSW 11 15 6 8 - - 0.0
09/07:40pm 28.8 24.3 2.3 18 13.5 WSW 15 17 8 9 - - 0.0
09/07:30pm 28.9 23.6 2.1 18 13.6 W 19 22 10 12 - - 0.0
09/07:20pm 29.1 23.8 2.1 17 13.8 WSW 19 24 10 13 - - 0.0
09/07:10pm 29.3 23.8 1.8 17 14.0 W 20 26 11 14 - - 0.0
09/07:00pm 29.5 24.0 2.0 17 14.0 W 20 24 11 13 - - 0.0
09/06:50pm 29.6 24.2 2.4 17 14.0 WSW 20 26 11 14 - - 0.0
09/06:40pm 30.1 23.9 2.3 17 14.3 W 24 28 13 15 - - 0.0
09/06:30pm 30.7 24.1 1.9 16 14.8 WSW 26 32 14 17 - - 0.0
09/06:20pm 31.0 24.4 2.3 16 14.8 WSW 26 32 14 17 - - 0.0
09/06:00pm 31.6 25.1 0.1 13 15.8 W 24 30 13 16 - - 0.0
09/05:50pm 32.0 25.4 -0.4 12 16.1 W 24 32 13 17 - - 0.0
09/05:40pm 32.1 26.0 0.5 13 16.0 WNW 22 26 12 14 - - 0.0
09/05:30pm 32.0 25.9 0.5 13 15.9 WNW 22 30 12 16 - - 0.0
09/05:20pm 32.1 25.5 -0.2 12 16.1 W 24 32 13 17 - - 0.0
09/05:10pm 32.4 25.3 -1.5 11 16.6 WNW 26 33 14 18 - - 0.0
09/05:00pm 32.4 26.5 -0.9 12 16.5 W 20 28 11 15 - - 0.0
09/04:50pm 32.3 26.1 -0.4 12 16.3 W 22 28 12 15 - - 0.0
09/04:40pm 32.2 26.6 1.4 14 15.8 WNW 20 26 11 14 - - 0.0
09/04:30pm 32.3 27.8 2.3 15 15.6 WNW 15 20 8 11 - - 0.0
09/04:20pm 32.2 26.9 2.9 15 15.4 W 20 28 11 15 - - 0.0
09/04:10pm 31.8 26.1 2.8 16 15.2 W 22 30 12 16 - - 0.0
09/04:00pm 32.1 26.0 3.0 16 15.3 NW 24 33 13 18 - - 0.0
09/03:50pm 32.1 26.2 1.8 14 15.6 WNW 22 32 12 17 - - 0.0
09/03:40pm 32.2 27.2 4.5 17 14.9 W 20 28 11 15 - - 0.0
09/03:30pm 31.9 27.0 4.3 17 14.8 NW 19 24 10 13 - - 0.0
09/03:20pm 31.6 26.6 4.8 18 14.5 WNW 20 28 11 15 - - 0.0
09/03:10pm 31.5 26.2 5.1 19 14.3 WNW 22 26 12 14 - - 0.0
09/03:00pm 31.3 26.5 4.6 18 14.4 WNW 19 35 10 19 - - 0.0
09/02:50pm 31.3 26.6 6.0 20 13.9 WNW 20 28 11 15 - - 0.0
09/02:40pm 31.0 25.7 5.2 19 14.0 W 22 32 12 17 - - 0.0
09/02:30pm 31.0 25.9 4.2 18 14.3 WNW 20 24 11 13 - - 0.0
09/02:20pm 30.5 24.6 3.7 18 14.1 WNW 24 28 13 15 - - 0.0
09/02:10pm 30.5 24.6 3.7 18 14.1 WNW 24 33 13 18 - - 0.0
09/02:00pm 30.4 25.3 4.1 19 14.0 WNW 20 28 11 15 - - 0.0
09/01:50pm 30.3 24.0 3.7 18 14.0 WNW 26 32 14 17 - - 0.0
09/01:40pm 30.0 24.0 3.6 18 13.9 WNW 24 32 13 17 - - 0.0
09/01:30pm 29.5 23.8 5.0 21 13.1 WNW 24 30 13 16 - - 0.0
09/01:20pm 29.9 24.1 4.2 19 13.6 WNW 24 32 13 17 - - 0.0
09/01:10pm 29.4 23.0 3.3 19 13.6 W 26 33 14 18 - - 0.0
09/01:00pm 29.0 23.9 6.0 23 12.5 WNW 22 30 12 16 - - 0.0
09/12:50pm 28.6 22.0 4.2 21 12.8 WNW 28 39 15 21 - - 0.0
09/12:40pm 28.4 25.1 9.6 31 10.8 NW 17 20 9 11 - - 0.0
09/12:30pm 28.0 24.0 8.2 28 11.1 WNW 19 26 10 14 - - 0.0
09/12:20pm 27.7 23.5 8.3 29 10.9 WNW 20 24 11 13 - - 0.0
09/12:10pm 27.7 24.5 9.9 32 10.3 NNW 17 24 9 13 - - 0.0
09/12:00pm 27.0 23.7 9.7 33 9.9 WNW 17 22 9 12 - - 0.0
09/11:50am 26.7 23.3 10.4 36 9.4 NW 19 24 10 13 - - 0.0
09/11:40am 26.4 23.7 10.5 37 9.2 NNW 15 20 8 11 - - 0.0
09/11:30am 25.5 22.1 10.7 39 8.6 NW 19 20 10 11 - - 0.0
09/11:20am 25.7 24.1 11.5 41 8.3 WNW 11 17 6 9 - - 0.0
09/11:10am 25.0 23.4 11.6 43 7.8 N 11 15 6 8 - - 0.0
09/11:00am 24.4 22.9 11.9 45 7.3 N 11 17 6 9 - - 0.0
09/10:50am 24.1 23.1 12.2 47 7.0 NE 9 11 5 6 - - 0.0
09/10:40am 23.8 23.2 12.2 48 6.8 NNW 7 11 4 6 - - 0.0
09/10:30am 22.7 21.7 12.3 52 6.1 NNE 9 11 5 6 - - 0.0
09/10:20am 22.4 21.5 12.5 53 5.8 N 9 13 5 7 - - 0.0
09/10:10am 21.7 21.1 12.3 55 5.5 N 7 11 4 6 - - 0.0
09/10:00am 21.2 20.6 12.4 57 5.1 N 7 11 4 6 - - 0.0
09/09:50am 21.1 20.7 12.4 57 5.1 E 6 9 3 5 - - 0.0
09/09:40am 20.0 19.1 12.5 62 4.4 NNE 9 11 5 6 - - 0.0
09/09:30am 20.0 19.1 12.5 62 4.4 ENE 9 15 5 8 - - 0.0
09/09:20am 19.3 18.4 12.6 65 3.9 NE 9 13 5 7 - - 0.0
09/09:10am 18.9 18.4 12.5 66 3.7 NE 7 11 4 6 - - 0.0
09/09:00am 18.5 17.2 12.6 68 3.4 ENE 11 15 6 8 - - 0.0
09/08:50am 18.1 17.2 12.6 70 3.2 ENE 9 13 5 7 - - 0.0
09/08:40am 17.6 16.7 12.5 72 2.9 NE 9 13 5 7 - - 0.0
09/08:30am 17.2 15.9 12.5 74 2.7 NNE 11 15 6 8 - - 0.0
09/08:20am 17.2 15.9 12.5 74 2.7 ENE 11 13 6 7 - - 0.0
09/08:10am 17.1 15.4 12.4 74 2.7 NE 13 15 7 8 - - 0.0
09/08:00am 16.8 15.5 12.4 75 2.5 NE 11 15 6 8 - - 0.0
09/07:50am 16.4 14.3 12.4 77 2.3 ENE 15 17 8 9 - - 0.0
09/07:40am 16.2 14.1 12.3 78 2.2 NE 15 17 8 9 - - 0.0
09/07:30am 16.2 14.4 12.2 77 2.3 NE 13 17 7 9 - - 0.0
09/07:20am 16.0 14.3 12.3 79 2.1 NE 13 15 7 8 - - 0.0
09/07:10am 16.0 14.6 12.3 79 2.1 NE 11 15 6 8 - - 0.0
09/07:00am 16.0 15.0 12.3 79 2.1 ENE 9 11 5 6 - - 0.0
09/06:50am 15.8 14.4 12.3 80 2.0 ENE 11 13 6 7 - - 0.0
09/06:40am 15.8 14.8 12.4 80 1.9 ENE 9 15 5 8 - - 0.0
09/06:30am 15.7 14.7 12.4 81 1.9 NE 9 13 5 7 - - 0.0
09/06:20am 15.7 15.3 12.4 81 1.9 NE 6 7 3 4 - - 0.0
09/06:10am 15.6 15.1 12.5 82 1.8 ENE 7 9 4 5 - - 0.0
09/06:00am 15.5 14.9 12.4 82 1.8 ENE 7 9 4 5 - - 0.0
09/05:50am 15.4 15.0 12.4 82 1.7 ENE 6 7 3 4 - - 0.0
09/05:40am 15.4 14.5 12.5 83 1.6 ENE 9 15 5 8 - - 0.0
09/05:30am 15.3 14.8 12.5 83 1.6 ENE 7 11 4 6 - - 0.0
09/05:20am 15.3 14.8 12.5 83 1.6 ENE 7 9 4 5 - - 0.0
09/05:10am 15.3 14.0 12.4 83 1.6 ENE 11 15 6 8 - - 0.0
09/05:00am 15.4 14.1 12.4 82 1.7 ENE 11 17 6 9 - - 0.0
09/04:50am 15.5 14.2 12.4 82 1.8 ENE 11 15 6 8 - - 0.0
09/04:40am 15.5 14.6 12.5 82 1.7 ENE 9 11 5 6 - - 0.0
09/04:30am 15.6 14.7 12.5 82 1.8 ENE 9 11 5 6 - - 0.0
09/04:20am 15.5 15.1 12.5 82 1.7 E 6 7 3 4 - - 0.0
09/04:10am 15.5 15.0 12.5 82 1.7 ENE 7 7 4 4 - - 0.0
09/04:00am 15.4 15.0 12.5 83 1.6 E 6 9 3 5 - - 0.0
09/03:50am 15.3 14.9 12.5 83 1.6 E 6 7 3 4 - - 0.0
09/03:40am 15.4 14.9 12.6 83 1.6 E 7 11 4 6 - - 0.0
09/03:30am 15.4 14.9 12.6 83 1.6 E 7 11 4 6 - - 0.0
09/03:20am 15.4 14.5 12.6 83 1.6 E 9 9 5 5 - - 0.0
09/03:10am 15.4 14.9 12.7 84 1.5 E 7 9 4 5 - - 0.0
09/03:00am 15.4 14.9 12.7 84 1.5 E 7 9 4 5 - - 0.0
09/02:50am 15.4 14.9 12.7 84 1.5 E 7 7 4 4 - - 0.0
09/02:40am 15.4 14.9 12.7 84 1.5 E 7 9 4 5 - - 0.0
09/02:30am 15.4 14.9 12.7 84 1.5 E 7 9 4 5 - - 0.0
09/02:20am 15.3 14.8 12.8 85 1.4 E 7 11 4 6 - - 0.0
09/02:10am 15.4 14.6 12.8 84 1.5 E 9 15 5 8 - - 0.0
09/02:00am 15.4 14.2 12.8 84 1.5 E 11 13 6 7 - - 0.0
09/01:50am 15.4 14.2 12.9 85 1.4 E 11 13 6 7 - - 0.0
09/01:40am 15.3 14.1 12.9 85 1.4 E 11 15 6 8 - - 0.0
09/01:30am 15.3 13.7 12.9 85 1.4 E 13 17 7 9 - - 0.0
09/01:20am 15.3 14.1 12.9 85 1.4 ENE 11 13 6 7 - - 0.0
09/01:10am 15.2 14.0 12.9 86 1.3 E 11 13 6 7 - - 0.0
09/01:00am 15.1 14.7 12.9 87 1.3 E 7 7 4 4 - - 0.0
09/12:50am 14.9 14.7 12.9 88 1.1 E 6 9 3 5 - - 0.0
09/12:40am 14.9 14.4 12.8 87 1.2 E 7 11 4 6 - - 0.0
09/12:30am 15.0 13.8 12.9 87 1.2 E 11 13 6 7 - - 0.0
09/12:20am 15.1 14.3 12.9 87 1.3 E 9 11 5 6 - - 0.0
09/12:10am 15.2 14.0 12.9 86 1.3 ENE 11 13 6 7 - - 0.0
09/12:00am 15.2 14.4 12.9 86 1.3 E 9 13 5 7 - - 0.0
 
Date/Time
EDT
Temp
°C
App
Temp
°C
Dew
Point
°C
Rel
Hum
%
Delta-T
°C
Wind Press
QNH
hPa
Press
MSL
hPa
Rain since
9am
mm
Dir  Spd
km/h
Gust
km/h
Spd
kts
Gust
kts
08/11:50pm 15.2 14.4 12.9 86 1.3 E 9 15 5 8 - - 0.0
08/11:40pm 15.2 14.1 13.0 87 1.3 E 11 17 6 9 - - 0.0
08/11:30pm 15.2 14.1 13.0 87 1.3 E 11 13 6 7 - - 0.0
08/11:20pm 15.2 14.0 12.9 86 1.3 E 11 15 6 8 - - 0.0
08/11:10pm 15.2 14.0 12.9 86 1.3 E 11 13 6 7 - - 0.0
08/11:00pm 15.2 13.6 12.9 86 1.3 E 13 17 7 9 - - 0.0
08/10:50pm 15.2 13.6 12.9 86 1.3 E 13 15 7 8 - - 0.0
08/10:40pm 15.3 13.7 12.9 85 1.4 E 13 15 7 8 - - 0.0
08/10:30pm 15.2 13.2 12.8 85 1.4 E 15 22 8 12 - - 0.0
08/10:20pm 15.2 12.5 12.9 86 1.3 E 19 22 10 12 - - 0.0
08/10:10pm 15.4 14.6 12.8 84 1.5 E 9 13 5 7 - - 0.0
08/10:00pm 15.4 13.8 12.8 84 1.5 E 13 17 7 9 - - 0.0
08/09:50pm 15.4 13.4 12.8 84 1.5 E 15 20 8 11 - - 0.0
08/09:40pm 15.4 13.4 12.7 84 1.5 E 15 19 8 10 - - 0.0
08/09:30pm 15.4 13.4 12.7 84 1.5 E 15 19 8 10 - - 0.0
08/09:20pm 15.4 13.8 12.7 84 1.5 E 13 15 7 8 - - 0.0
08/09:10pm 15.4 13.4 12.7 84 1.5 E 15 19 8 10 - - 0.0
08/09:00pm 15.3 12.9 12.7 84 1.5 E 17 24 9 13 - - 0.0
08/08:50pm 15.4 12.6 12.7 84 1.5 E 19 24 10 13 - - 0.0
08/08:40pm 15.4 12.7 12.8 84 1.5 E 19 22 10 12 - - 0.0
08/08:30pm 15.6 13.2 12.8 83 1.6 - 17 22 9 12 - - 0.0
08/08:20pm 15.6 13.2 12.6 82 1.7 E 17 22 9 12 - - 0.0
08/08:10pm 15.7 12.7 12.6 82 1.8 E 20 30 11 16 - - 0.0
08/08:00pm 15.9 13.5 12.6 81 1.9 E 17 24 9 13 - - 0.0
08/07:50pm 16.1 13.1 12.6 80 2.0 E 20 28 11 15 - - 0.0
08/07:40pm 16.4 13.1 12.7 79 2.1 E 22 26 12 14 - - 0.0
08/07:30pm 16.8 14.0 12.6 76 2.4 E 19 26 10 14 - - 0.0
08/07:20pm 17.2 14.4 12.6 74 2.6 E 19 24 10 13 - - 0.0
08/07:10pm 17.7 14.3 12.6 72 2.9 E 22 24 12 13 - - 0.0
08/07:00pm 18.3 15.3 12.7 70 3.2 E 20 24 11 13 - - 0.0
08/06:50pm 18.9 16.1 12.6 67 3.6 E 19 24 10 13 - - 0.0
08/06:40pm 19.3 16.3 12.6 65 3.9 E 20 24 11 13 - - 0.0
08/06:30pm 19.9 17.2 12.8 63 4.1 E 19 26 10 14 - - 0.0
08/06:20pm 20.6 18.6 12.6 60 4.7 ENE 15 17 8 9 - - 0.0
08/06:10pm 21.2 17.8 12.6 58 5.0 ENE 22 32 12 17 - - 0.0
08/06:00pm 21.7 17.5 12.4 55 5.4 ENE 26 33 14 18 - - 0.0
08/05:50pm 22.1 17.1 12.3 53 5.7 ENE 30 35 16 19 - - 0.0
08/05:40pm 22.7 17.0 11.9 50 6.3 ENE 33 41 18 22 - - 0.0
08/05:30pm 22.9 17.3 11.4 48 6.6 ENE 32 35 17 19 - - 0.0
08/05:20pm 23.5 18.6 11.4 46 7.0 ENE 28 33 15 18 - - 0.0
08/05:10pm 23.8 18.4 11.0 44 7.4 ENE 30 35 16 19 - - 0.0
08/05:00pm 23.6 17.3 11.1 45 7.2 NE 35 41 19 22 - - 0.0
08/04:50pm 24.2 18.5 11.1 43 7.6 NE 32 37 17 20 - - 0.0
08/04:40pm 24.1 18.1 10.8 43 7.7 NE 33 41 18 22 - - 0.0
08/04:30pm 24.8 19.2 10.3 40 8.3 ENE 30 33 16 18 - - 0.0
08/04:20pm 24.6 19.1 10.4 40 8.1 ENE 30 32 16 17 - - 0.0
08/04:10pm 24.9 19.7 10.2 39 8.4 ENE 28 33 15 18 - - 0.0
08/04:00pm 24.8 19.5 10.0 39 8.4 ENE 28 33 15 18 - - 0.0
08/03:50pm 25.2 20.0 10.1 38 8.6 ENE 28 33 15 18 - - 0.0
08/03:40pm 25.2 19.8 9.6 37 8.8 ENE 28 33 15 18 - - 0.0
08/03:30pm 25.7 20.5 10.1 37 8.9 ENE 28 33 15 18 - - 0.0
08/03:20pm 25.5 20.2 10.0 37 8.9 ENE 28 32 15 17 - - 0.0
08/03:10pm 25.6 20.6 9.6 36 9.1 ENE 26 33 14 18 - - 0.0
08/03:00pm 26.5 23.5 9.3 33 9.8 NE 15 20 8 11 - - 0.0
08/02:50pm 26.9 22.5 4.9 24 11.6 NE 17 28 9 15 - - 0.0
08/02:40pm 26.9 22.9 5.1 24 11.5 N 15 20 8 11 - - 0.0
08/02:30pm 26.5 22.5 4.9 25 11.4 NNE 15 22 8 12 - - 0.0
08/02:20pm 26.4 21.8 5.7 26 11.0 NE 19 22 10 12 - - 0.0
08/02:10pm 25.8 22.8 6.1 28 10.5 NE 11 15 6 8 - - 0.0
08/02:00pm 25.7 21.8 5.4 27 10.7 N 15 19 8 10 - - 0.0
08/01:50pm 25.8 21.7 6.3 28 10.5 NE 17 26 9 14 - - 0.0
08/01:40pm 25.2 21.8 5.8 28 10.3 ENE 13 20 7 11 - - 0.0
08/01:30pm 25.4 21.3 6.2 29 10.3 ENE 17 22 9 12 - - 0.0
08/01:20pm 24.9 21.9 6.2 30 10.0 NNE 11 19 6 10 - - 0.0
08/01:10pm 24.8 20.9 7.2 32 9.6 E 17 22 9 12 - - 0.0
08/01:00pm 24.4 20.0 6.6 32 9.5 ENE 19 22 10 12 - - 0.0
08/12:50pm 25.0 22.1 6.6 30 9.9 ENE 11 17 6 9 - - 0.0
08/12:40pm 24.4 21.3 7.4 33 9.2 NE 13 17 7 9 - - 0.0
08/12:30pm 23.8 20.8 6.1 32 9.4 N 11 17 6 9 - - 0.0
08/12:20pm 23.3 19.7 6.7 34 8.9 E 15 20 8 11 - - 0.0
08/12:10pm 23.3 20.5 6.8 34 8.8 E 11 17 6 9 - - 0.0
08/12:00pm 23.6 20.7 6.7 33 9.0 NE 11 17 6 9 - - 0.0
08/11:50am 22.8 20.4 7.2 36 8.4 N 9 17 5 9 - - 0.0
08/11:40am 22.4 18.6 7.7 38 7.9 NE 17 20 9 11 - - 0.0
08/11:30am 22.4 19.9 8.2 40 7.7 ESE 11 17 6 9 - - 0.0
08/11:20am 22.1 19.6 8.3 41 7.5 E 11 19 6 10 - - 0.0
08/11:10am 21.6 18.8 8.5 43 7.1 ENE 13 20 7 11 - - 0.0
08/11:00am 21.2 18.7 8.4 43 7.0 ENE 11 19 6 10 - - 0.0
08/10:50am 21.1 18.0 8.7 45 6.8 E 15 17 8 9 - - 0.0
08/10:40am 20.6 17.5 8.9 47 6.4 E 15 19 8 10 - - 0.0
08/10:30am 20.3 17.6 9.1 48 6.1 ENE 13 19 7 10 - - 0.0
08/10:20am 19.8 17.1 8.9 49 5.9 ENE 13 17 7 9 - - 0.0
08/10:10am 19.5 16.6 9.5 52 5.5 ENE 15 20 8 11 - - 0.0
08/10:00am 18.8 16.5 10.3 57 4.7 ENE 13 20 7 11 - - 0.0
08/09:50am 18.7 16.6 9.8 56 4.9 ENE 11 17 6 9 - - 0.0
08/09:40am 18.2 16.2 10.3 60 4.4 ENE 11 19 6 10 - - 0.0
08/09:30am 18.0 16.0 10.2 60 4.3 E 11 19 6 10 - - 0.0
08/09:20am 17.9 15.9 10.0 60 4.3 ENE 11 15 6 8 - - 0.0
08/09:10am 17.6 15.6 10.2 62 4.1 ENE 11 15 6 8 - - 0.0
08/09:00am 17.2 15.2 10.0 62 3.9 ENE 11 13 6 7 - - 0.0
08/08:50am 16.7 14.7 10.3 66 3.5 NE 11 13 6 7 - - 0.0
08/08:40am 16.3 14.8 10.6 69 3.1 NNE 9 13 5 7 - - 0.0
08/08:30am 15.8 13.5 10.6 71 2.9 NE 13 13 7 7 - - 0.0
08/08:20am 15.4 13.2 10.7 73 2.6 NE 13 15 7 8 - - 0.0
08/08:10am 14.8 12.6 10.8 77 2.2 NE 13 15 7 8 - - 0.0
08/08:00am 14.5 12.3 10.8 78 2.0 NE 13 15 7 8 - - 0.0
08/07:50am 14.3 12.1 10.9 80 1.9 NE 13 15 7 8 - - 0.0
08/07:40am 14.0 11.9 11.0 82 1.6 NE 13 15 7 8 - - 0.0
08/07:30am 13.9 12.2 11.1 83 1.5 NE 11 13 6 7 - - 0.0
08/07:20am 13.6 11.1 11.1 85 1.4 NE 15 17 8 9 - - 0.0
08/07:10am 13.1 11.3 10.8 86 1.3 ENE 11 17 6 9 - - 0.0
08/07:00am 11.8 11.2 10.5 92 0.7 ENE 4 6 2 3 - - 0.0
08/06:50am 10.7 10.3 9.6 93 0.6 SSW 2 4 1 2 - - 0.0
08/06:40am 10.6 10.1 9.4 92 0.6 ESE 2 4 1 2 - - 0.0
08/06:30am 10.7 9.6 10.0 95 0.4 ENE 6 6 3 3 - - 0.0
08/06:20am 10.1 8.7 9.4 95 0.4 NE 7 7 4 4 - - 0.0
08/06:10am 10.0 8.6 9.4 96 0.3 NE 7 7 4 4 - - 0.0
08/06:00am 9.6 8.2 9.0 96 0.3 ENE 6 7 3 4 - - 0.0
08/05:50am 9.3 7.8 8.4 94 0.5 NE 6 7 3 4 - - 0.0
08/05:40am 9.8 8.4 8.9 94 0.5 NE 6 6 3 3 - - 0.0
08/05:30am 10.5 9.3 9.4 93 0.6 E 6 6 3 3 - - 0.0
08/05:20am 10.8 9.6 9.6 92 0.6 E 6 7 3 4 - - 0.0
08/05:10am 11.2 9.9 9.9 92 0.7 E 7 9 4 5 - - 0.0
08/05:00am 11.5 10.1 9.6 88 1.0 E 7 9 4 5 - - 0.0
08/04:50am 11.5 9.8 10.0 90 0.8 ESE 9 11 5 6 - - 0.0
08/04:40am 11.6 10.3 10.0 90 0.8 ESE 7 7 4 4 - - 0.0
08/04:30am 11.9 10.8 10.1 89 1.0 SE 6 7 3 4 - - 0.0
08/04:20am 12.1 11.4 10.1 87 1.1 SE 4 6 2 3 - - 0.0
08/04:10am 12.4 11.7 10.2 86 1.2 E 4 6 2 3 - - 0.0
08/04:00am 12.6 11.9 10.2 85 1.3 E 4 6 2 3 - - 0.0
08/03:50am 12.9 11.9 10.3 84 1.4 E 6 7 3 4 - - 0.0
08/03:40am 13.2 11.9 10.1 81 1.7 E 7 11 4 6 - - 0.0
08/03:30am 13.4 11.3 9.9 79 1.9 NE 11 17 6 9 - - 0.0
08/03:20am 13.3 10.9 10.1 81 1.7 NE 13 17 7 9 - - 0.0
08/03:10am 13.4 11.0 10.2 81 1.7 NE 13 15 7 8 - - 0.0
08/03:00am 13.4 10.7 10.2 81 1.7 NE 15 17 8 9 - - 0.0
08/02:50am 13.2 11.3 10.5 84 1.5 NE 11 11 6 6 - - 0.0
08/02:40am 13.1 12.2 10.5 84 1.4 ENE 6 11 3 6 - - 0.0
08/02:30am 12.8 12.3 10.7 87 1.1 E 4 7 2 4 - - 0.0
08/02:20am 12.7 12.2 10.7 88 1.1 E 4 6 2 3 - - 0.0
08/02:10am 13.0 12.5 10.9 87 1.1 ENE 4 7 2 4 - - 0.0
08/02:00am 13.2 11.8 11.0 86 1.2 E 9 13 5 7 - - 0.0
08/01:50am 13.2 12.2 10.9 86 1.3 E 7 13 4 7 - - 0.0
08/01:40am 13.2 11.5 11.1 87 1.1 ENE 11 11 6 6 - - 0.0
08/01:30am 13.3 11.6 11.1 86 1.2 E 11 13 6 7 - - 0.0
08/01:20am 13.3 11.9 11.0 86 1.3 E 9 11 5 6 - - 0.0
08/01:10am 13.3 12.3 11.1 86 1.2 E 7 9 4 5 - - 0.0
08/01:00am 13.5 12.2 11.3 86 1.2 E 9 11 5 6 - - 0.0
08/12:50am 13.6 12.3 11.4 86 1.2 E 9 11 5 6 - - 0.0
08/12:40am 13.7 12.5 11.5 86 1.2 ESE 9 13 5 7 - - 0.0
08/12:30am 13.6 12.4 11.5 87 1.2 ESE 9 11 5 6 - - 0.0
08/12:20am 13.6 12.4 11.6 88 1.1 E 9 11 5 6 - - 0.0
08/12:10am 13.8 12.6 11.6 86 1.2 E 9 11 5 6 - - 0.0
08/12:00am 13.9 12.3 11.7 86 1.2 E 11 13 6 7 - - 0.0
 
Date/Time
EDT
Temp
°C
App
Temp
°C
Dew
Point
°C
Rel
Hum
%
Delta-T
°C
Wind Press
QNH
hPa
Press
MSL
hPa
Rain since
9am
mm
Dir  Spd
km/h
Gust
km/h
Spd
kts
Gust
kts
07/11:50pm 14.0 12.1 11.7 86 1.3 E 13 15 7 8 - - 0.0
07/11:40pm 14.2 12.7 11.8 85 1.3 E 11 15 6 8 - - 0.0
07/11:30pm 14.2 12.7 11.8 85 1.3 E 11 15 6 8 - - 0.0
07/11:20pm 14.3 13.2 12.0 86 1.3 E 9 13 5 7 - - 0.0
07/11:10pm 14.3 12.9 12.1 87 1.2 E 11 15 6 8 - - 0.0
07/11:00pm 14.3 12.1 12.1 87 1.2 E 15 19 8 10 - - 0.0
07/10:50pm 14.3 12.1 12.2 87 1.2 E 15 19 8 10 - - 0.0
07/10:40pm 14.4 11.8 12.1 86 1.3 E 17 20 9 11 - - 0.0
07/10:30pm 14.4 12.2 12.2 87 1.2 E 15 19 8 10 - - 0.0
07/10:20pm 14.3 11.7 12.1 87 1.2 E 17 20 9 11 - - 0.0
07/10:10pm 14.3 11.8 12.2 87 1.2 E 17 19 9 10 - - 0.0
07/10:00pm 14.4 10.9 12.2 87 1.2 E 22 26 12 14 - - 0.0
07/09:50pm 14.6 12.1 12.3 86 1.3 E 17 22 9 12 - - 0.0
07/09:40pm 14.7 11.7 12.4 86 1.3 ENE 20 24 11 13 - - 0.0
07/09:30pm 14.7 11.7 12.4 86 1.3 ENE 20 24 11 13 - - 0.0
07/09:20pm 14.9 12.5 12.5 85 1.4 E 17 19 9 10 - - 0.0
07/09:10pm 15.0 12.2 12.5 85 1.4 ENE 19 24 10 13 - - 0.0
07/09:00pm 15.1 11.7 12.5 84 1.5 ENE 22 26 12 14 - - 0.0
07/08:50pm 15.3 12.9 12.5 83 1.6 E 17 22 9 12 - - 0.0
07/08:40pm 15.5 12.5 12.6 83 1.7 ENE 20 26 11 14 - - 0.0
07/08:30pm 15.8 13.4 12.5 81 1.9 E 17 20 9 11 - - 0.0
07/08:20pm 16.1 13.1 12.4 79 2.1 E 20 24 11 13 - - 0.0
07/08:10pm 16.5 13.6 12.2 76 2.4 ENE 19 20 10 11 - - 0.0
07/08:00pm 16.9 13.4 12.3 74 2.6 ENE 22 32 12 17 - - 0.0
07/07:50pm 18.1 16.3 12.1 68 3.4 ENE 13 15 7 8 - - 0.0
07/07:40pm 18.6 16.1 11.2 62 4.2 E 15 22 8 12 - - 0.0
07/07:30pm 20.8 18.4 12.8 60 4.7 ENE 17 28 9 15 - - 0.0
07/07:20pm 24.5 18.6 -2.2 17 12.2 W 19 24 10 13 - - 0.0
07/07:10pm 24.6 17.0 -2.0 17 12.2 W 28 30 15 16 - - 0.0
07/07:00pm 25.0 17.8 -1.9 17 12.4 W 26 33 14 18 - - 0.0
07/06:50pm 25.4 19.0 -1.7 16 12.6 W 22 30 12 16 - - 0.0
07/06:40pm 25.8 19.4 -1.9 16 12.8 W 22 32 12 17 - - 0.0

Latest Capital City Observations: Canberra | Sydney | Melbourne | Brisbane | Adelaide | Perth | Hobart | Darwin

Other formats

Comma delimited format used in spreadsheet applications
http://www.bom.gov.au/fwo/IDN60903/IDN60903.99764.axf

JavaScript Object Notation format (JSON) in row-major order
http://www.bom.gov.au/fwo/IDN60903/IDN60903.99764.json

Data quality

Most of these data are generated automatically and are frequently updated. Quality checks on data are not normally performed. It is possible for incorrect values to appear. Refer to information at About Latest Weather Observations and please check the disclaimer before using these data.